sensor_id;sensor_type;location;lat;lon;timestamp;pressure;altitude;pressure_sealevel;temperature;humidity
20889;BME280;10604;51.976;7.594;2023-07-02T00:00:22;99876.69;;;25.61;56.10
20889;BME280;10604;51.976;7.594;2023-07-02T00:02:47;99871.72;;;25.49;56.10
20889;BME280;10604;51.976;7.594;2023-07-02T00:05:12;99859.88;;;25.42;56.20
20889;BME280;10604;51.976;7.594;2023-07-02T00:07:38;99871.34;;;25.35;56.69
20889;BME280;10604;51.976;7.594;2023-07-02T00:10:03;99865.38;;;25.66;55.97
20889;BME280;10604;51.976;7.594;2023-07-02T00:12:28;99858.56;;;25.12;56.75
20889;BME280;10604;51.976;7.594;2023-07-02T00:14:54;99858.69;;;25.78;55.51
20889;BME280;10604;51.976;7.594;2023-07-02T00:17:19;99863.38;;;25.68;55.26
20889;BME280;10604;51.976;7.594;2023-07-02T00:19:45;99861.88;;;25.73;55.15
20889;BME280;10604;51.976;7.594;2023-07-02T00:22:11;99863.50;;;25.58;55.46
20889;BME280;10604;51.976;7.594;2023-07-02T00:24:37;99864.41;;;25.33;56.42
20889;BME280;10604;51.976;7.594;2023-07-02T00:27:02;99878.59;;;25.69;55.54
20889;BME280;10604;51.976;7.594;2023-07-02T00:29:28;99875.97;;;25.93;55.02
20889;BME280;10604;51.976;7.594;2023-07-02T00:31:53;99878.59;;;25.77;55.59
20889;BME280;10604;51.976;7.594;2023-07-02T00:34:18;99872.94;;;25.20;57.09
20889;BME280;10604;51.976;7.594;2023-07-02T00:36:44;99874.56;;;25.05;58.18
20889;BME280;10604;51.976;7.594;2023-07-02T00:39:09;99871.00;;;25.39;57.35
20889;BME280;10604;51.976;7.594;2023-07-02T00:41:36;99878.44;;;25.45;56.66
20889;BME280;10604;51.976;7.594;2023-07-02T00:44:02;99883.84;;;25.79;56.00
20889;BME280;10604;51.976;7.594;2023-07-02T00:46:27;99871.72;;;25.49;57.00
20889;BME280;10604;51.976;7.594;2023-07-02T00:48:53;99858.19;;;25.41;57.54
20889;BME280;10604;51.976;7.594;2023-07-02T00:51:25;99872.22;;;25.94;55.95
20889;BME280;10604;51.976;7.594;2023-07-02T00:53:52;99873.84;;;25.63;56.50
20889;BME280;10604;51.976;7.594;2023-07-02T00:56:18;99869.78;;;25.67;56.35
20889;BME280;10604;51.976;7.594;2023-07-02T00:58:44;99862.38;;;25.69;56.05
20889;BME280;10604;51.976;7.594;2023-07-02T01:01:14;99859.28;;;25.22;57.50
20889;BME280;10604;51.976;7.594;2023-07-02T01:03:49;99857.91;;;25.18;57.79
20889;BME280;10604;51.976;7.594;2023-07-02T01:06:18;99856.97;;;25.69;57.00
20889;BME280;10604;51.976;7.594;2023-07-02T01:08:45;99846.16;;;25.69;56.95
20889;BME280;10604;51.976;7.594;2023-07-02T01:11:10;99820.22;;;25.08;57.72
20889;BME280;10604;51.976;7.594;2023-07-02T01:13:36;99839.91;;;25.26;57.72
20889;BME280;10604;51.976;7.594;2023-07-02T01:16:01;99836.41;;;25.08;57.99
20889;BME280;10604;51.976;7.594;2023-07-02T01:18:27;99837.53;;;25.31;57.26
20889;BME280;10604;51.976;7.594;2023-07-02T01:20:52;99838.13;;;25.09;58.06
20889;BME280;10604;51.976;7.594;2023-07-02T01:23:18;99842.16;;;25.47;57.23
20889;BME280;10604;51.976;7.594;2023-07-02T01:25:43;99831.44;;;25.21;57.56
20889;BME280;10604;51.976;7.594;2023-07-02T01:28:10;99842.41;;;25.62;56.15
20889;BME280;10604;51.976;7.594;2023-07-02T01:30:38;99841.41;;;24.95;57.74
20889;BME280;10604;51.976;7.594;2023-07-02T01:33:03;99852.81;;;25.49;56.54
20889;BME280;10604;51.976;7.594;2023-07-02T01:35:29;99856.28;;;25.67;56.48
20889;BME280;10604;51.976;7.594;2023-07-02T01:37:54;99851.28;;;25.96;55.38
20889;BME280;10604;51.976;7.594;2023-07-02T01:40:19;99848.19;;;25.33;57.39
20889;BME280;10604;51.976;7.594;2023-07-02T01:42:45;99848.00;;;25.26;57.17
20889;BME280;10604;51.976;7.594;2023-07-02T01:45:10;99846.69;;;25.39;56.49
20889;BME280;10604;51.976;7.594;2023-07-02T01:47:35;99853.66;;;25.15;58.00
20889;BME280;10604;51.976;7.594;2023-07-02T01:50:01;99849.66;;;25.19;57.55
20889;BME280;10604;51.976;7.594;2023-07-02T01:52:27;99856.28;;;25.33;57.35
20889;BME280;10604;51.976;7.594;2023-07-02T01:54:52;99859.69;;;25.77;56.03
20889;BME280;10604;51.976;7.594;2023-07-02T01:57:18;99860.91;;;25.07;57.21
20889;BME280;10604;51.976;7.594;2023-07-02T01:59:43;99852.59;;;25.76;55.48
20889;BME280;10604;51.976;7.594;2023-07-02T02:02:08;99854.31;;;24.83;57.47
20889;BME280;10604;51.976;7.594;2023-07-02T02:04:33;99851.63;;;24.83;57.84
20889;BME280;10604;51.976;7.594;2023-07-02T02:06:59;99847.25;;;25.16;56.99
20889;BME280;10604;51.976;7.594;2023-07-02T02:09:24;99850.19;;;25.65;56.26
20889;BME280;10604;51.976;7.594;2023-07-02T02:11:50;99863.53;;;25.66;56.24
20889;BME280;10604;51.976;7.594;2023-07-02T02:14:15;99859.53;;;25.45;56.18
20889;BME280;10604;51.976;7.594;2023-07-02T02:16:40;99857.16;;;25.33;56.63
20889;BME280;10604;51.976;7.594;2023-07-02T02:19:10;99863.97;;;25.54;56.01
20889;BME280;10604;51.976;7.594;2023-07-02T02:21:35;99861.44;;;24.67;58.48
20889;BME280;10604;51.976;7.594;2023-07-02T02:24:00;99855.75;;;25.29;56.71
20889;BME280;10604;51.976;7.594;2023-07-02T02:26:26;99863.25;;;25.35;56.39
20889;BME280;10604;51.976;7.594;2023-07-02T02:28:51;99862.41;;;25.09;56.42
20889;BME280;10604;51.976;7.594;2023-07-02T02:31:16;99855.81;;;24.78;57.67
20889;BME280;10604;51.976;7.594;2023-07-02T02:33:42;99852.97;;;25.05;57.00
20889;BME280;10604;51.976;7.594;2023-07-02T02:36:07;99852.81;;;24.89;57.05
20889;BME280;10604;51.976;7.594;2023-07-02T02:38:32;99854.81;;;24.87;56.93
20889;BME280;10604;51.976;7.594;2023-07-02T02:40:59;99855.47;;;24.81;57.23
20889;BME280;10604;51.976;7.594;2023-07-02T02:43:24;99854.25;;;24.93;56.68
20889;BME280;10604;51.976;7.594;2023-07-02T02:45:49;99855.31;;;25.00;57.09
20889;BME280;10604;51.976;7.594;2023-07-02T02:48:14;99856.22;;;25.17;56.11
20889;BME280;10604;51.976;7.594;2023-07-02T02:50:40;99854.91;;;24.51;57.52
20889;BME280;10604;51.976;7.594;2023-07-02T02:53:08;99863.34;;;24.74;56.78
20889;BME280;10604;51.976;7.594;2023-07-02T02:55:34;99855.75;;;25.29;56.13
20889;BME280;10604;51.976;7.594;2023-07-02T02:58:00;99862.63;;;25.50;55.19
20889;BME280;10604;51.976;7.594;2023-07-02T03:00:25;99854.00;;;25.12;55.61
20889;BME280;10604;51.976;7.594;2023-07-02T03:02:51;99860.88;;;24.81;55.93
20889;BME280;10604;51.976;7.594;2023-07-02T03:05:16;99861.50;;;25.26;55.43
20889;BME280;10604;51.976;7.594;2023-07-02T03:07:41;99865.63;;;24.87;56.45
20889;BME280;10604;51.976;7.594;2023-07-02T03:10:07;99867.59;;;25.36;55.27
20889;BME280;10604;51.976;7.594;2023-07-02T03:12:32;99867.97;;;25.42;54.85
20889;BME280;10604;51.976;7.594;2023-07-02T03:14:57;99877.47;;;25.12;55.72
20889;BME280;10604;51.976;7.594;2023-07-02T03:17:23;99876.50;;;24.51;56.25
20889;BME280;10604;51.976;7.594;2023-07-02T03:19:48;99886.28;;;24.96;56.07
20889;BME280;10604;51.976;7.594;2023-07-02T03:22:13;99893.91;;;25.26;55.36
20889;BME280;10604;51.976;7.594;2023-07-02T03:24:39;99887.09;;;25.48;54.34
20889;BME280;10604;51.976;7.594;2023-07-02T03:27:04;99895.00;;;24.46;56.18
20889;BME280;10604;51.976;7.594;2023-07-02T03:29:29;99898.56;;;25.16;56.04
20889;BME280;10604;51.976;7.594;2023-07-02T03:31:55;99900.00;;;25.36;55.29
20889;BME280;10604;51.976;7.594;2023-07-02T03:34:20;99903.88;;;25.60;55.13
20889;BME280;10604;51.976;7.594;2023-07-02T03:36:47;99910.41;;;25.91;54.69
20889;BME280;10604;51.976;7.594;2023-07-02T03:39:12;99913.00;;;25.67;54.89
20889;BME280;10604;51.976;7.594;2023-07-02T03:41:38;99906.09;;;24.87;56.03
20889;BME280;10604;51.976;7.594;2023-07-02T03:44:03;99913.94;;;24.90;56.24
20889;BME280;10604;51.976;7.594;2023-07-02T03:46:28;99913.63;;;24.93;56.30
20889;BME280;10604;51.976;7.594;2023-07-02T03:48:55;99911.41;;;25.14;55.94
20889;BME280;10604;51.976;7.594;2023-07-02T03:51:20;99915.38;;;25.62;54.57
20889;BME280;10604;51.976;7.594;2023-07-02T03:53:45;99927.03;;;25.36;55.05
20889;BME280;10604;51.976;7.594;2023-07-02T03:56:11;99933.19;;;24.95;55.27
20889;BME280;10604;51.976;7.594;2023-07-02T03:58:36;99932.25;;;24.86;55.18
20889;BME280;10604;51.976;7.594;2023-07-02T04:01:01;99932.72;;;25.00;55.08
20889;BME280;10604;51.976;7.594;2023-07-02T04:03:26;99927.72;;;25.64;53.64
20889;BME280;10604;51.976;7.594;2023-07-02T04:05:52;99945.88;;;25.96;52.92
20889;BME280;10604;51.976;7.594;2023-07-02T04:08:17;99946.09;;;25.09;54.15
20889;BME280;10604;51.976;7.594;2023-07-02T04:10:43;99955.66;;;25.21;54.01
20889;BME280;10604;51.976;7.594;2023-07-02T04:13:08;99946.66;;;25.47;52.98
20889;BME280;10604;51.976;7.594;2023-07-02T04:15:33;99948.41;;;25.90;52.04
20889;BME280;10604;51.976;7.594;2023-07-02T04:17:59;99954.47;;;25.50;51.70
20889;BME280;10604;51.976;7.594;2023-07-02T04:20:24;99960.69;;;25.76;52.15
20889;BME280;10604;51.976;7.594;2023-07-02T04:22:50;99962.63;;;25.92;51.85
20889;BME280;10604;51.976;7.594;2023-07-02T04:25:16;99957.97;;;25.16;52.54
20889;BME280;10604;51.976;7.594;2023-07-02T04:27:41;99963.19;;;24.92;52.90
20889;BME280;10604;51.976;7.594;2023-07-02T04:30:07;99960.34;;;25.79;51.74
20889;BME280;10604;51.976;7.594;2023-07-02T04:32:33;99965.75;;;25.79;51.12
20889;BME280;10604;51.976;7.594;2023-07-02T04:34:58;99964.94;;;25.79;50.27
20889;BME280;10604;51.976;7.594;2023-07-02T04:37:24;99971.28;;;25.44;50.47
20889;BME280;10604;51.976;7.594;2023-07-02T04:39:49;99977.00;;;26.08;49.53
20889;BME280;10604;51.976;7.594;2023-07-02T04:42:14;99975.84;;;25.17;50.30
20889;BME280;10604;51.976;7.594;2023-07-02T04:44:39;99977.25;;;25.21;50.41
20889;BME280;10604;51.976;7.594;2023-07-02T04:47:08;99982.97;;;25.70;49.66
20889;BME280;10604;51.976;7.594;2023-07-02T04:49:33;99979.66;;;25.32;49.65
20889;BME280;10604;51.976;7.594;2023-07-02T04:51:58;99982.13;;;26.20;48.78
20889;BME280;10604;51.976;7.594;2023-07-02T04:54:24;99983.38;;;25.91;47.93
20889;BME280;10604;51.976;7.594;2023-07-02T04:56:49;99984.41;;;25.90;48.37
20889;BME280;10604;51.976;7.594;2023-07-02T04:59:14;99987.59;;;25.86;46.71
20889;BME280;10604;51.976;7.594;2023-07-02T05:01:40;99998.28;;;26.03;47.58
20889;BME280;10604;51.976;7.594;2023-07-02T05:04:06;100005.03;;;26.58;46.67
20889;BME280;10604;51.976;7.594;2023-07-02T05:06:31;100003.81;;;26.28;46.32
20889;BME280;10604;51.976;7.594;2023-07-02T05:08:56;100006.59;;;25.68;46.91
20889;BME280;10604;51.976;7.594;2023-07-02T05:11:21;100006.59;;;25.68;46.96
20889;BME280;10604;51.976;7.594;2023-07-02T05:13:47;100004.09;;;25.74;46.30
20889;BME280;10604;51.976;7.594;2023-07-02T05:16:12;99996.81;;;27.08;44.63
20889;BME280;10604;51.976;7.594;2023-07-02T05:18:38;100005.25;;;26.64;44.48
20889;BME280;10604;51.976;7.594;2023-07-02T05:21:03;99995.47;;;26.13;43.67
20889;BME280;10604;51.976;7.594;2023-07-02T05:23:28;99994.13;;;25.49;44.61
20889;BME280;10604;51.976;7.594;2023-07-02T05:25:53;100008.94;;;26.55;43.54
20889;BME280;10604;51.976;7.594;2023-07-02T05:28:19;100001.19;;;27.33;43.69
20889;BME280;10604;51.976;7.594;2023-07-02T05:30:44;100012.41;;;27.14;42.61
20889;BME280;10604;51.976;7.594;2023-07-02T05:33:09;100004.94;;;26.83;43.62
20889;BME280;10604;51.976;7.594;2023-07-02T05:35:34;100018.13;;;26.20;43.41
20889;BME280;10604;51.976;7.594;2023-07-02T05:38:00;100017.50;;;26.26;43.57
20889;BME280;10604;51.976;7.594;2023-07-02T05:40:25;100016.53;;;25.93;43.03
20889;BME280;10604;51.976;7.594;2023-07-02T05:42:50;100023.50;;;26.62;43.19
20889;BME280;10604;51.976;7.594;2023-07-02T05:45:15;100030.00;;;27.26;42.71
20889;BME280;10604;51.976;7.594;2023-07-02T05:47:41;100027.22;;;26.61;41.81
20889;BME280;10604;51.976;7.594;2023-07-02T05:50:06;100022.09;;;26.34;42.62
20889;BME280;10604;51.976;7.594;2023-07-02T05:52:32;100035.50;;;25.50;43.80
20889;BME280;10604;51.976;7.594;2023-07-02T05:54:57;100032.66;;;24.72;44.29
20889;BME280;10604;51.976;7.594;2023-07-02T05:57:22;100040.78;;;25.33;44.95
20889;BME280;10604;51.976;7.594;2023-07-02T05:59:48;100039.41;;;25.55;43.30
20889;BME280;10604;51.976;7.594;2023-07-02T06:02:13;100043.66;;;25.84;43.27
20889;BME280;10604;51.976;7.594;2023-07-02T06:04:38;100050.00;;;26.00;42.88
20889;BME280;10604;51.976;7.594;2023-07-02T06:07:03;100049.34;;;26.06;42.79
20889;BME280;10604;51.976;7.594;2023-07-02T06:09:28;100041.66;;;25.86;42.99
20889;BME280;10604;51.976;7.594;2023-07-02T06:11:54;100038.28;;;26.26;42.29
20889;BME280;10604;51.976;7.594;2023-07-02T06:14:19;100051.63;;;26.85;41.66
20889;BME280;10604;51.976;7.594;2023-07-02T06:16:44;100047.09;;;26.28;42.53
20889;BME280;10604;51.976;7.594;2023-07-02T06:19:09;100047.09;;;26.28;40.91
20889;BME280;10604;51.976;7.594;2023-07-02T06:21:35;100043.03;;;26.32;40.72
20889;BME280;10604;51.976;7.594;2023-07-02T06:24:01;100044.56;;;27.33;39.84
20889;BME280;10604;51.976;7.594;2023-07-02T06:26:27;100039.47;;;26.98;39.93
20889;BME280;10604;51.976;7.594;2023-07-02T06:28:52;100058.25;;;27.15;41.39
20889;BME280;10604;51.976;7.594;2023-07-02T06:31:17;100050.63;;;26.78;41.24
20889;BME280;10604;51.976;7.594;2023-07-02T06:33:42;100054.97;;;26.55;41.78
20889;BME280;10604;51.976;7.594;2023-07-02T06:36:08;100052.13;;;26.89;41.03
20889;BME280;10604;51.976;7.594;2023-07-02T06:38:33;100057.31;;;26.50;41.61
20889;BME280;10604;51.976;7.594;2023-07-02T06:40:58;100058.44;;;27.22;40.43
20889;BME280;10604;51.976;7.594;2023-07-02T06:43:24;100068.94;;;27.25;39.62
20889;BME280;10604;51.976;7.594;2023-07-02T06:45:49;100075.81;;;26.87;41.06
20889;BME280;10604;51.976;7.594;2023-07-02T06:48:14;100069.75;;;26.85;40.96
20889;BME280;10604;51.976;7.594;2023-07-02T06:50:45;100078.75;;;27.34;39.57
20889;BME280;10604;51.976;7.594;2023-07-02T06:53:10;100074.88;;;26.46;40.34
20889;BME280;10604;51.976;7.594;2023-07-02T06:55:36;100091.81;;;26.14;40.51
20889;BME280;10604;51.976;7.594;2023-07-02T06:58:01;100088.81;;;26.75;40.56
20889;BME280;10604;51.976;7.594;2023-07-02T07:00:26;100097.69;;;27.02;39.72
20889;BME280;10604;51.976;7.594;2023-07-02T07:02:52;100078.41;;;27.61;39.08
20889;BME280;10604;51.976;7.594;2023-07-02T07:05:17;100090.78;;;27.32;39.24
20889;BME280;10604;51.976;7.594;2023-07-02T07:07:42;100078.06;;;27.08;39.01
20889;BME280;10604;51.976;7.594;2023-07-02T07:10:08;100087.53;;;26.96;40.47
20889;BME280;10604;51.976;7.594;2023-07-02T07:12:33;100098.41;;;27.52;39.24
20889;BME280;10604;51.976;7.594;2023-07-02T07:14:58;100095.81;;;27.91;38.85
20889;BME280;10604;51.976;7.594;2023-07-02T07:17:23;100092.88;;;28.01;38.51
20889;BME280;10604;51.976;7.594;2023-07-02T07:19:49;100090.28;;;27.28;38.93
20889;BME280;10604;51.976;7.594;2023-07-02T07:22:14;100092.63;;;27.72;37.85
20889;BME280;10604;51.976;7.594;2023-07-02T07:24:41;100090.94;;;27.38;38.30
20889;BME280;10604;51.976;7.594;2023-07-02T07:27:06;100109.56;;;27.17;37.26
20889;BME280;10604;51.976;7.594;2023-07-02T07:29:32;100103.63;;;26.47;37.68
20889;BME280;10604;51.976;7.594;2023-07-02T07:31:57;100106.03;;;27.49;37.55
20889;BME280;10604;51.976;7.594;2023-07-02T07:34:22;100108.09;;;28.26;37.18
20889;BME280;10604;51.976;7.594;2023-07-02T07:36:47;100119.94;;;27.62;38.36
20889;BME280;10604;51.976;7.594;2023-07-02T07:39:12;100114.94;;;27.98;37.61
20889;BME280;10604;51.976;7.594;2023-07-02T07:41:38;100109.00;;;28.50;37.41
20889;BME280;10604;51.976;7.594;2023-07-02T07:44:03;100106.09;;;28.20;35.71
20889;BME280;10604;51.976;7.594;2023-07-02T07:46:28;100126.59;;;28.23;34.58
20889;BME280;10604;51.976;7.594;2023-07-02T07:48:53;100113.50;;;27.55;34.33
20889;BME280;10604;51.976;7.594;2023-07-02T07:51:19;100111.34;;;28.22;33.10
20889;BME280;10604;51.976;7.594;2023-07-02T07:53:44;100106.47;;;28.87;32.48
20889;BME280;10604;51.976;7.594;2023-07-02T07:56:09;100119.94;;;28.41;31.69
20889;BME280;10604;51.976;7.594;2023-07-02T07:58:34;100121.97;;;29.01;31.07
20889;BME280;10604;51.976;7.594;2023-07-02T08:01:00;100128.81;;;28.19;32.87
20889;BME280;10604;51.976;7.594;2023-07-02T08:03:25;100133.19;;;28.28;32.43
20889;BME280;10604;51.976;7.594;2023-07-02T08:05:50;100130.53;;;28.04;32.22
20889;BME280;10604;51.976;7.594;2023-07-02T08:08:15;100137.28;;;28.24;32.28
20889;BME280;10604;51.976;7.594;2023-07-02T08:10:41;100126.72;;;28.37;32.52
20889;BME280;10604;51.976;7.594;2023-07-02T08:13:07;100134.06;;;28.13;32.13
20889;BME280;10604;51.976;7.594;2023-07-02T08:15:33;100143.50;;;28.41;32.93
20889;BME280;10604;51.976;7.594;2023-07-02T08:17:58;100137.06;;;28.73;31.70
20889;BME280;10604;51.976;7.594;2023-07-02T08:20:24;100137.63;;;29.22;31.92
20889;BME280;10604;51.976;7.594;2023-07-02T08:22:49;100140.19;;;29.69;31.53
20889;BME280;10604;51.976;7.594;2023-07-02T08:25:16;100149.97;;;28.71;33.00
20889;BME280;10604;51.976;7.594;2023-07-02T08:27:42;100169.53;;;27.79;32.42
20889;BME280;10604;51.976;7.594;2023-07-02T08:30:08;100131.75;;;28.88;31.23
20889;BME280;10604;51.976;7.594;2023-07-02T08:32:33;100154.06;;;28.75;31.46
20889;BME280;10604;51.976;7.594;2023-07-02T08:34:58;100148.03;;;29.18;30.31
20889;BME280;10604;51.976;7.594;2023-07-02T08:37:24;100162.41;;;28.18;30.05
20889;BME280;10604;51.976;7.594;2023-07-02T08:39:49;100152.34;;;28.74;29.91
20889;BME280;10604;51.976;7.594;2023-07-02T08:42:14;100163.03;;;29.60;30.05
20889;BME280;10604;51.976;7.594;2023-07-02T08:44:40;100158.38;;;28.92;30.31
20889;BME280;10604;51.976;7.594;2023-07-02T08:47:06;100158.66;;;28.11;28.84
20889;BME280;10604;51.976;7.594;2023-07-02T08:49:31;100152.53;;;29.03;29.80
20889;BME280;10604;51.976;7.594;2023-07-02T08:51:57;100165.09;;;29.04;29.58
20889;BME280;10604;51.976;7.594;2023-07-02T08:54:23;100160.19;;;28.69;29.99
20889;BME280;10604;51.976;7.594;2023-07-02T08:56:48;100166.75;;;28.74;31.26
20889;BME280;10604;51.976;7.594;2023-07-02T08:59:13;100163.59;;;28.63;30.31
20889;BME280;10604;51.976;7.594;2023-07-02T09:01:48;100178.31;;;28.21;30.28
20889;BME280;10604;51.976;7.594;2023-07-02T09:04:15;100181.94;;;28.61;30.93
20889;BME280;10604;51.976;7.594;2023-07-02T09:06:40;100179.69;;;28.17;30.51
20889;BME280;10604;51.976;7.594;2023-07-02T09:09:05;100183.00;;;28.43;31.04
20889;BME280;10604;51.976;7.594;2023-07-02T09:11:31;100175.06;;;28.73;30.52
20889;BME280;10604;51.976;7.594;2023-07-02T09:13:56;100180.69;;;29.10;30.71
20889;BME280;10604;51.976;7.594;2023-07-02T09:16:29;100186.19;;;29.25;29.96
20889;BME280;10604;51.976;7.594;2023-07-02T09:19:01;100181.97;;;29.91;29.35
20889;BME280;10604;51.976;7.594;2023-07-02T09:21:27;100176.91;;;29.19;28.57
20889;BME280;10604;51.976;7.594;2023-07-02T09:23:53;100196.97;;;28.24;30.60
20889;BME280;10604;51.976;7.594;2023-07-02T09:26:19;100189.69;;;26.77;31.10
20889;BME280;10604;51.976;7.594;2023-07-02T09:28:45;100184.41;;;27.26;31.59
20889;BME280;10604;51.976;7.594;2023-07-02T09:31:10;100172.94;;;27.64;31.68
20889;BME280;10604;51.976;7.594;2023-07-02T09:33:35;100182.75;;;27.90;32.72
20889;BME280;10604;51.976;7.594;2023-07-02T09:36:00;100187.72;;;28.50;30.99
20889;BME280;10604;51.976;7.594;2023-07-02T09:38:26;100182.78;;;29.00;30.95
20889;BME280;10604;51.976;7.594;2023-07-02T09:40:52;100186.69;;;29.74;29.51
20889;BME280;10604;51.976;7.594;2023-07-02T09:43:17;100181.78;;;29.24;28.79
20889;BME280;10604;51.976;7.594;2023-07-02T09:45:44;100185.38;;;28.47;29.75
20889;BME280;10604;51.976;7.594;2023-07-02T09:48:11;100171.84;;;29.62;30.67
20889;BME280;10604;51.976;7.594;2023-07-02T09:50:38;100181.47;;;30.40;28.12
20889;BME280;10604;51.976;7.594;2023-07-02T09:53:05;100192.75;;;29.39;28.76
20889;BME280;10604;51.976;7.594;2023-07-02T09:55:30;100185.00;;;28.50;29.59
20889;BME280;10604;51.976;7.594;2023-07-02T09:57:56;100197.34;;;27.89;30.18
20889;BME280;10604;51.976;7.594;2023-07-02T10:00:22;100190.22;;;27.55;31.18
20889;BME280;10604;51.976;7.594;2023-07-02T10:02:48;100203.94;;;28.19;31.26
20889;BME280;10604;51.976;7.594;2023-07-02T10:05:24;100203.63;;;28.69;29.80
20889;BME280;10604;51.976;7.594;2023-07-02T10:07:50;100207.31;;;30.58;28.93
20889;BME280;10604;51.976;7.594;2023-07-02T10:10:25;100220.94;;;30.06;28.33
20889;BME280;10604;51.976;7.594;2023-07-02T10:12:50;100216.16;;;28.78;29.98
20889;BME280;10604;51.976;7.594;2023-07-02T10:15:23;100214.41;;;29.55;29.99
20889;BME280;10604;51.976;7.594;2023-07-02T10:17:54;100214.97;;;28.80;30.42
20889;BME280;10604;51.976;7.594;2023-07-02T10:20:30;100210.84;;;29.24;30.03
20889;BME280;10604;51.976;7.594;2023-07-02T10:22:56;100215.78;;;29.20;30.69
20889;BME280;10604;51.976;7.594;2023-07-02T10:25:25;100208.19;;;30.07;29.52
20889;BME280;10604;51.976;7.594;2023-07-02T10:27:51;100209.13;;;30.14;28.85
20889;BME280;10604;51.976;7.594;2023-07-02T10:30:16;100214.47;;;30.59;29.47
20889;BME280;10604;51.976;7.594;2023-07-02T10:32:41;100200.28;;;29.74;29.89
20889;BME280;10604;51.976;7.594;2023-07-02T10:35:13;100204.00;;;29.28;30.62
20889;BME280;10604;51.976;7.594;2023-07-02T10:37:39;100227.34;;;27.87;31.72
20889;BME280;10604;51.976;7.594;2023-07-02T10:40:07;100227.81;;;28.07;32.48
20889;BME280;10604;51.976;7.594;2023-07-02T10:42:33;100236.13;;;28.93;30.98
20889;BME280;10604;51.976;7.594;2023-07-02T10:44:59;100231.09;;;28.74;30.91
20889;BME280;10604;51.976;7.594;2023-07-02T10:47:24;100238.34;;;28.10;31.52
20889;BME280;10604;51.976;7.594;2023-07-02T10:49:49;100216.72;;;29.04;30.19
20889;BME280;10604;51.976;7.594;2023-07-02T10:52:15;100216.28;;;30.15;29.12
20889;BME280;10604;51.976;7.594;2023-07-02T10:54:46;100198.91;;;32.32;28.34
20889;BME280;10604;51.976;7.594;2023-07-02T10:57:18;100208.06;;;33.47;27.74
20889;BME280;10604;51.976;7.594;2023-07-02T10:59:47;100213.03;;;33.17;26.19
20889;BME280;10604;51.976;7.594;2023-07-02T11:02:13;100220.75;;;32.66;26.94
20889;BME280;10604;51.976;7.594;2023-07-02T11:04:38;100206.97;;;31.69;27.90
20889;BME280;10604;51.976;7.594;2023-07-02T11:07:03;100205.19;;;31.19;27.97
20889;BME280;10604;51.976;7.594;2023-07-02T11:09:29;100212.34;;;30.91;28.46
20889;BME280;10604;51.976;7.594;2023-07-02T11:11:55;100234.63;;;29.75;29.50
20889;BME280;10604;51.976;7.594;2023-07-02T11:14:28;100230.22;;;29.74;30.23
20889;BME280;10604;51.976;7.594;2023-07-02T11:16:56;100231.94;;;29.13;30.19
20889;BME280;10604;51.976;7.594;2023-07-02T11:19:22;100233.25;;;28.39;31.48
20889;BME280;10604;51.976;7.594;2023-07-02T11:21:51;100231.56;;;28.06;30.23
20889;BME280;10604;51.976;7.594;2023-07-02T11:24:25;100233.19;;;29.34;29.25
20889;BME280;10604;51.976;7.594;2023-07-02T11:26:51;100230.28;;;30.26;28.88
20889;BME280;10604;51.976;7.594;2023-07-02T11:29:19;100225.41;;;30.95;27.42
20889;BME280;10604;51.976;7.594;2023-07-02T11:31:45;100220.22;;;31.15;27.46
20889;BME280;10604;51.976;7.594;2023-07-02T11:36:38;100224.28;;;32.60;26.30
20889;BME280;10604;51.976;7.594;2023-07-02T11:39:03;100224.75;;;32.36;26.15
20889;BME280;10604;51.976;7.594;2023-07-02T11:41:37;100221.00;;;32.37;25.34
20889;BME280;10604;51.976;7.594;2023-07-02T11:44:02;100228.81;;;32.74;24.81
20889;BME280;10604;51.976;7.594;2023-07-02T11:46:28;100243.41;;;32.25;27.00
20889;BME280;10604;51.976;7.594;2023-07-02T11:48:53;100239.06;;;30.51;26.90
20889;BME280;10604;51.976;7.594;2023-07-02T11:51:18;100232.25;;;29.72;28.04
20889;BME280;10604;51.976;7.594;2023-07-02T11:53:43;100244.81;;;30.19;28.17
20889;BME280;10604;51.976;7.594;2023-07-02T11:56:09;100242.97;;;30.93;28.48
20889;BME280;10604;51.976;7.594;2023-07-02T11:58:40;100225.84;;;31.28;27.00
20889;BME280;10604;51.976;7.594;2023-07-02T12:01:12;100233.72;;;32.02;26.58
20889;BME280;10604;51.976;7.594;2023-07-02T12:03:50;100241.19;;;30.85;28.03
20889;BME280;10604;51.976;7.594;2023-07-02T12:06:55;100242.00;;;30.27;27.92
20889;BME280;10604;51.976;7.594;2023-07-02T12:09:43;100234.47;;;30.81;27.22
20889;BME280;10604;51.976;7.594;2023-07-02T12:12:12;100240.44;;;31.78;26.56
20889;BME280;10604;51.976;7.594;2023-07-02T12:14:38;100238.53;;;32.83;25.83
20889;BME280;10604;51.976;7.594;2023-07-02T12:17:14;100239.97;;;32.45;24.68
20889;BME280;10604;51.976;7.594;2023-07-02T12:19:39;100250.03;;;32.72;24.74
20889;BME280;10604;51.976;7.594;2023-07-02T12:22:07;100238.41;;;33.52;24.34
20889;BME280;10604;51.976;7.594;2023-07-02T12:24:36;100235.50;;;34.39;24.49
20889;BME280;10604;51.976;7.594;2023-07-02T12:27:02;100245.97;;;32.34;25.72
20889;BME280;10604;51.976;7.594;2023-07-02T12:29:27;100249.19;;;31.16;26.14
20889;BME280;10604;51.976;7.594;2023-07-02T12:31:52;100247.19;;;31.25;26.75
20889;BME280;10604;51.976;7.594;2023-07-02T12:34:18;100245.03;;;30.91;27.13
20889;BME280;10604;51.976;7.594;2023-07-02T12:36:45;100247.25;;;32.10;26.01
20889;BME280;10604;51.976;7.594;2023-07-02T12:39:14;100247.75;;;32.48;25.69
20889;BME280;10604;51.976;7.594;2023-07-02T12:41:46;100237.63;;;32.76;25.31
20889;BME280;10604;51.976;7.594;2023-07-02T12:44:12;100232.72;;;33.60;24.93
20889;BME280;10604;51.976;7.594;2023-07-02T12:47:00;100243.09;;;34.11;24.96
20889;BME280;10604;51.976;7.594;2023-07-02T12:49:25;100253.09;;;34.96;23.78
20889;BME280;10604;51.976;7.594;2023-07-02T12:51:51;100262.63;;;33.08;25.26